Time;durP1;ratioP1;P1;durP2;ratioP2;P2;SDS_P1;SDS_P2;PMS_P1;PMS_P2;Temp;Humidity;BMP_temperature;BMP_pressure;BME280_temperature;BME280_humidity;BME280_pressure;Samples;Min_cycle;Max_cycle;Signal;HPM_P1;HPM_P2
2021/12/30 00:01:57;;;;;;;18.33;7.07;;;13.00;99.90;;;;;;5055179;28;20172;-64
2021/12/30 00:04:23;;;;;;;19.40;7.43;;;13.00;99.90;;;;;;5055050;28;20175;-64
2021/12/30 00:06:50;;;;;;;18.70;6.35;;;13.00;99.90;;;;;;5053231;28;20533;-63
2021/12/30 00:09:18;;;;;;;17.60;6.20;;;13.00;99.90;;;;;;5055049;28;20175;-63
2021/12/30 00:11:44;;;;;;;16.35;6.35;;;13.00;99.90;;;;;;5054898;28;20172;-64
2021/12/30 00:14:10;;;;;;;15.27;6.30;;;13.00;99.90;;;;;;5054936;28;20172;-63
2021/12/30 00:16:36;;;;;;;15.55;5.82;;;13.00;99.90;;;;;;5055193;28;20195;-63
2021/12/30 00:19:02;;;;;;;12.63;5.85;;;13.10;99.90;;;;;;5053715;28;20253;-63
2021/12/30 00:21:27;;;;;;;15.70;5.78;;;13.10;99.90;;;;;;5054729;28;20198;-64
2021/12/30 00:23:53;;;;;;;16.83;6.30;;;13.20;99.90;;;;;;5054443;28;20172;-63
2021/12/30 00:26:20;;;;;;;15.57;6.32;;;13.10;99.90;;;;;;5054410;28;20167;-63
2021/12/30 00:28:45;;;;;;;13.50;4.97;;;13.20;99.90;;;;;;5054637;28;20254;-63
2021/12/30 00:31:11;;;;;;;9.45;4.82;;;13.20;99.90;;;;;;5054631;28;20321;-63
2021/12/30 00:33:37;;;;;;;12.23;5.03;;;13.20;99.90;;;;;;5054582;28;20632;-64
2021/12/30 00:36:07;;;;;;;10.55;4.63;;;13.20;99.90;;;;;;5054182;28;20180;-64
2021/12/30 00:38:34;;;;;;;10.80;4.80;;;13.30;99.90;;;;;;5054379;28;20171;-63
2021/12/30 00:41:00;;;;;;;8.52;4.10;;;13.30;99.90;;;;;;5054452;28;20265;-63
2021/12/30 00:43:26;;;;;;;8.50;3.92;;;13.30;99.90;;;;;;5054595;28;20584;-64
2021/12/30 00:45:52;;;;;;;5.60;3.35;;;13.30;99.90;;;;;;5054559;28;20174;-61
2021/12/30 00:48:18;;;;;;;7.80;3.70;;;13.30;99.90;;;;;;5054305;28;20310;-63
2021/12/30 00:50:45;;;;;;;8.45;3.25;;;13.30;99.90;;;;;;5053360;28;20605;-63
2021/12/30 00:53:11;;;;;;;8.20;3.70;;;13.40;99.90;;;;;;5054208;28;20168;-64
2021/12/30 00:55:38;;;;;;;6.13;3.20;;;13.40;99.90;;;;;;5054129;28;20179;-63
2021/12/30 00:58:05;;;;;;;6.70;3.13;;;13.50;99.90;;;;;;5054078;28;20195;-63
2021/12/30 01:00:31;;;;;;;6.45;3.25;;;13.40;99.90;;;;;;5053917;28;20199;-63
2021/12/30 01:02:57;;;;;;;5.88;2.80;;;13.40;99.90;;;;;;5053913;28;20183;-64
2021/12/30 01:05:23;;;;;;;6.45;3.30;;;13.50;99.90;;;;;;5053884;28;20244;-63
2021/12/30 01:07:49;;;;;;;6.10;3.25;;;13.40;99.90;;;;;;5053883;28;20198;-65
2021/12/30 01:10:20;;;;;;;4.80;3.70;;;13.40;99.90;;;;;;5054077;28;20175;-62
2021/12/30 01:12:47;;;;;;;4.25;3.00;;;13.40;99.90;;;;;;5054013;28;20163;-64
2021/12/30 01:15:17;;;;;;;8.80;4.05;;;13.40;99.90;;;;;;5053821;28;20191;-65
2021/12/30 01:20:13;;;;;;;7.13;3.22;;;13.40;99.90;;;;;;5053645;28;20210;-63
2021/12/30 01:22:39;;;;;;;4.72;2.92;;;13.40;99.90;;;;;;5053258;28;20175;-63
2021/12/30 01:25:11;;;;;;;8.80;3.20;;;13.30;99.90;;;;;;5053629;28;20609;-62
2021/12/30 01:27:39;;;;;;;3.03;2.67;;;13.30;99.90;;;;;;5053626;28;20168;-63
2021/12/30 01:30:08;;;;;;;5.05;3.20;;;13.30;99.90;;;;;;5053521;28;20183;-64
2021/12/30 01:32:34;;;;;;;6.43;3.28;;;13.30;99.90;;;;;;5053821;28;20698;-64
2021/12/30 01:35:00;;;;;;;4.45;3.20;;;13.30;99.90;;;;;;5053590;28;20175;-64
2021/12/30 01:37:26;;;;;;;4.93;3.20;;;13.30;99.90;;;;;;5053462;28;20589;-64
2021/12/30 01:39:53;;;;;;;6.97;3.58;;;13.40;99.90;;;;;;5052370;28;20239;-63
2021/12/30 01:42:19;;;;;;;4.25;3.05;;;13.50;99.90;;;;;;5053485;28;20656;-64
2021/12/30 01:44:45;;;;;;;5.68;2.90;;;13.50;99.90;;;;;;5053193;28;20176;-63
2021/12/30 01:47:11;;;;;;;3.80;3.42;;;13.40;99.90;;;;;;5051544;28;20183;-64
2021/12/30 01:49:36;;;;;;;6.25;3.30;;;13.40;99.90;;;;;;5053294;28;20713;-64
2021/12/30 01:52:03;;;;;;;6.00;3.10;;;13.50;99.90;;;;;;5051989;28;20179;-64
2021/12/30 01:54:29;;;;;;;5.80;3.40;;;13.40;99.90;;;;;;5053312;28;20171;-63
2021/12/30 01:57:02;;;;;;;4.32;3.22;;;13.40;99.90;;;;;;5053315;28;20249;-63
2021/12/30 01:59:28;;;;;;;4.85;2.60;;;13.40;99.90;;;;;;5053232;28;20225;-63
2021/12/30 02:01:56;;;;;;;5.15;3.08;;;13.50;99.90;;;;;;5052073;28;20207;-63
2021/12/30 02:04:29;;;;;;;4.07;2.60;;;13.50;99.90;;;;;;5053267;28;20191;-63
2021/12/30 02:06:55;;;;;;;3.03;2.50;;;13.50;99.90;;;;;;5053215;28;20482;-64
2021/12/30 02:09:23;;;;;;;7.18;2.80;;;13.50;99.90;;;;;;5053409;28;20175;-65
2021/12/30 02:11:49;;;;;;;3.25;2.60;;;13.50;99.90;;;;;;5053215;28;20256;-64
2021/12/30 02:14:16;;;;;;;4.70;2.65;;;13.60;99.90;;;;;;5053125;28;20175;-64
2021/12/30 02:16:42;;;;;;;2.88;2.50;;;13.60;99.90;;;;;;5053456;28;20206;-64
2021/12/30 02:19:07;;;;;;;3.78;2.90;;;13.50;99.90;;;;;;5053074;28;20248;-63
2021/12/30 02:21:33;;;;;;;3.95;2.45;;;13.50;99.90;;;;;;5053072;28;20187;-64
2021/12/30 02:23:59;;;;;;;2.65;2.40;;;13.40;99.90;;;;;;5052741;28;20167;-63
2021/12/30 02:26:26;;;;;;;4.97;2.35;;;13.40;99.90;;;;;;5052959;28;20206;-63
2021/12/30 02:28:52;;;;;;;3.05;2.50;;;13.50;99.90;;;;;;5053545;28;20179;-63
2021/12/30 02:31:27;;;;;;;3.95;2.50;;;13.50;99.90;;;;;;5056885;28;20171;-63
2021/12/30 02:33:57;;;;;;;2.63;2.17;;;13.50;99.90;;;;;;5057130;28;20554;-63
2021/12/30 02:36:34;;;;;;;2.97;2.40;;;13.50;99.90;;;;;;5056823;28;20197;-63
2021/12/30 02:39:06;;;;;;;3.03;2.22;;;13.50;99.90;;;;;;5056712;28;20195;-63
2021/12/30 02:41:36;;;;;;;3.08;2.30;;;13.50;99.90;;;;;;5056737;28;20526;-63
2021/12/30 02:44:04;;;;;;;3.83;2.40;;;13.50;99.90;;;;;;5056309;28;20179;-65
2021/12/30 02:46:30;;;;;;;2.42;2.22;;;13.50;99.90;;;;;;5055056;28;20184;-63
2021/12/30 02:48:57;;;;;;;2.67;2.33;;;13.50;99.90;;;;;;5056565;28;20179;-63
2021/12/30 02:51:24;;;;;;;2.85;2.40;;;13.60;99.90;;;;;;5056553;28;20202;-64
2021/12/30 02:53:50;;;;;;;3.35;2.28;;;13.70;99.90;;;;;;5055273;28;20632;-63
2021/12/30 02:56:16;;;;;;;5.15;2.40;;;13.70;99.90;;;;;;5056132;28;20159;-63
2021/12/30 02:58:42;;;;;;;3.05;2.33;;;13.60;99.90;;;;;;5056290;28;20562;-63
2021/12/30 03:01:10;;;;;;;3.53;2.20;;;13.60;99.90;;;;;;5056318;28;20175;-63
2021/12/30 03:03:37;;;;;;;3.15;2.63;;;13.60;99.90;;;;;;5056182;28;20164;-64
2021/12/30 03:06:05;;;;;;;3.08;2.35;;;13.60;99.90;;;;;;5056295;28;20185;-64
2021/12/30 03:08:31;;;;;;;2.38;2.05;;;13.70;99.90;;;;;;5054892;28;20258;-64
2021/12/30 03:10:58;;;;;;;2.92;2.63;;;13.70;99.90;;;;;;5056160;28;20171;-64
2021/12/30 03:13:30;;;;;;;3.42;2.30;;;13.70;99.90;;;;;;5055827;28;20178;-65
2021/12/30 03:16:02;;;;;;;2.00;1.90;;;13.80;99.90;;;;;;5056041;28;20225;-64
2021/12/30 03:18:28;;;;;;;2.22;1.90;;;13.80;99.90;;;;;;5055940;28;20169;-63
2021/12/30 03:20:54;;;;;;;1.70;1.60;;;13.80;99.90;;;;;;5055892;28;20199;-63
2021/12/30 03:23:20;;;;;;;2.22;1.70;;;13.80;99.90;;;;;;5055901;28;20175;-63
2021/12/30 03:25:45;;;;;;;2.28;1.75;;;13.90;99.90;;;;;;5055854;28;20179;-64
2021/12/30 03:28:11;;;;;;;1.85;1.42;;;13.90;99.90;;;;;;5055838;28;20266;-64
2021/12/30 03:30:37;;;;;;;1.30;1.20;;;13.90;99.90;;;;;;5055587;28;20583;-64
2021/12/30 03:33:03;;;;;;;1.50;1.20;;;13.90;99.90;;;;;;5055418;28;20183;-64
2021/12/30 03:35:29;;;;;;;1.40;1.27;;;13.90;99.90;;;;;;5055299;28;20245;-64
2021/12/30 03:37:56;;;;;;;1.15;1.00;;;13.90;99.90;;;;;;5055953;28;20179;-64
2021/12/30 03:40:22;;;;;;;1.10;1.00;;;13.90;99.90;;;;;;5054558;28;20241;-63
2021/12/30 03:42:48;;;;;;;1.10;1.05;;;13.90;99.90;;;;;;5055233;28;20175;-64
2021/12/30 03:45:16;;;;;;;1.02;0.90;;;14.00;99.90;;;;;;5055331;28;20176;-64
2021/12/30 03:47:46;;;;;;;0.90;0.90;;;14.00;99.90;;;;;;5055510;28;20171;-64
2021/12/30 03:50:31;;;;;;;1.10;0.95;;;14.00;99.90;;;;;;5055421;28;20171;-64
2021/12/30 03:52:59;;;;;;;0.82;0.82;;;13.90;99.90;;;;;;5055587;28;20187;-64
2021/12/30 03:55:28;;;;;;;0.80;0.80;;;14.00;99.90;;;;;;5055354;28;20179;-64
2021/12/30 03:57:54;;;;;;;0.80;0.80;;;14.00;99.90;;;;;;5055228;28;20175;-64
2021/12/30 04:00:21;;;;;;;0.70;0.70;;;14.00;99.90;;;;;;5055262;28;20281;-64
2021/12/30 04:02:47;;;;;;;1.40;0.70;;;13.90;99.90;;;;;;5055095;28;20175;-64
2021/12/30 04:05:13;;;;;;;0.82;0.70;;;13.90;99.90;;;;;;5055377;28;20506;-64
2021/12/30 04:07:39;;;;;;;0.70;0.70;;;13.90;99.90;;;;;;5055177;28;20260;-64
2021/12/30 04:10:07;;;;;;;1.85;0.82;;;13.80;99.90;;;;;;5055051;28;20175;-63
2021/12/30 04:12:33;;;;;;;1.77;0.80;;;13.90;99.90;;;;;;5054913;28;20170;-64
2021/12/30 04:14:59;;;;;;;1.10;1.00;;;13.90;99.90;;;;;;5054633;28;20179;-64
2021/12/30 04:17:24;;;;;;;1.48;0.82;;;13.80;99.90;;;;;;5055204;28;20167;-64
2021/12/30 04:19:50;;;;;;;1.20;0.90;;;13.90;99.90;;;;;;5054456;28;20203;-64
2021/12/30 04:22:18;;;;;;;1.10;0.88;;;13.90;99.90;;;;;;5054829;28;20176;-64
2021/12/30 04:24:45;;;;;;;0.70;0.70;;;13.80;99.90;;;;;;5054697;28;20648;-64
2021/12/30 04:27:11;;;;;;;0.80;0.80;;;13.80;99.90;;;;;;5054654;28;20214;-64
2021/12/30 04:29:36;;;;;;;0.95;0.80;;;14.00;99.90;;;;;;5054384;28;20210;-64
2021/12/30 04:32:02;;;;;;;1.25;1.00;;;14.00;99.90;;;;;;5054303;28;20189;-64
2021/12/30 04:34:28;;;;;;;0.90;0.77;;;13.90;99.90;;;;;;5055319;28;20225;-63
2021/12/30 04:36:58;;;;;;;1.50;1.08;;;13.90;99.90;;;;;;5054295;28;20210;-64
2021/12/30 04:39:27;;;;;;;2.03;1.00;;;13.90;99.90;;;;;;5054255;28;20290;-64
2021/12/30 04:41:53;;;;;;;1.35;1.20;;;13.90;99.90;;;;;;5054469;28;20171;-64
2021/12/30 04:44:19;;;;;;;1.80;1.30;;;14.00;99.90;;;;;;5053148;28;20240;-64
2021/12/30 04:46:45;;;;;;;1.25;1.15;;;14.00;99.90;;;;;;5053927;28;20194;-64
2021/12/30 04:49:10;;;;;;;2.25;1.75;;;14.00;99.90;;;;;;5054314;28;20468;-64
2021/12/30 04:51:36;;;;;;;1.25;1.13;;;13.90;99.90;;;;;;5053963;28;20197;-64
2021/12/30 04:54:02;;;;;;;1.55;1.40;;;14.00;99.90;;;;;;5053895;28;20228;-64
2021/12/30 04:56:28;;;;;;;2.28;1.17;;;13.80;99.90;;;;;;5054132;28;20171;-63
2021/12/30 04:58:54;;;;;;;1.45;1.20;;;13.80;99.90;;;;;;5054005;28;20178;-64
2021/12/30 05:01:19;;;;;;;1.45;1.20;;;13.80;99.90;;;;;;5054105;28;20234;-64
2021/12/30 05:03:45;;;;;;;2.10;1.40;;;13.80;99.90;;;;;;5053740;28;20171;-64
2021/12/30 05:06:11;;;;;;;1.40;1.30;;;13.90;99.90;;;;;;5053947;28;20211;-64
2021/12/30 05:08:37;;;;;;;1.45;1.25;;;14.00;99.90;;;;;;5053922;28;20562;-64
2021/12/30 05:11:04;;;;;;;1.77;1.50;;;13.90;99.90;;;;;;5053855;28;20502;-64
2021/12/30 05:13:31;;;;;;;1.50;1.40;;;13.90;99.90;;;;;;5053884;28;20221;-64
2021/12/30 05:15:57;;;;;;;1.83;1.48;;;13.90;99.90;;;;;;5053741;28;20282;-64
2021/12/30 05:18:30;;;;;;;2.15;1.70;;;14.00;99.90;;;;;;5053815;28;20258;-64
2021/12/30 05:20:57;;;;;;;2.28;1.70;;;14.00;99.90;;;;;;5053692;28;20234;-64
2021/12/30 05:23:23;;;;;;;2.05;1.75;;;14.00;99.90;;;;;;5053698;28;20204;-64
2021/12/30 05:25:49;;;;;;;4.65;1.88;;;13.90;99.90;;;;;;5053936;28;20232;-64
2021/12/30 05:28:15;;;;;;;2.90;1.60;;;13.90;99.90;;;;;;5053724;28;20183;-64
2021/12/30 05:30:40;;;;;;;2.70;1.77;;;13.80;99.90;;;;;;5035999;28;20278;-63
2021/12/30 05:33:06;;;;;;;3.63;1.80;;;13.80;99.90;;;;;;5053824;28;20179;-64
2021/12/30 05:35:31;;;;;;;2.58;1.70;;;13.80;99.90;;;;;;5052371;28;20217;-64
2021/12/30 05:37:59;;;;;;;2.38;1.75;;;13.90;99.90;;;;;;5053545;28;20171;-64
2021/12/30 05:40:25;;;;;;;3.90;1.55;;;13.80;99.90;;;;;;5052195;28;20253;-64
2021/12/30 05:42:51;;;;;;;2.25;1.73;;;13.80;99.90;;;;;;5053420;28;20655;-64
2021/12/30 05:45:17;;;;;;;3.33;1.83;;;13.90;99.90;;;;;;5052016;28;20183;-64
2021/12/30 05:47:47;;;;;;;3.28;2.10;;;14.00;99.90;;;;;;5053311;28;20532;-64
2021/12/30 05:50:19;;;;;;;2.45;1.65;;;14.00;99.90;;;;;;5053444;28;20174;-64
2021/12/30 05:52:46;;;;;;;3.65;1.60;;;14.00;99.90;;;;;;5052347;28;20242;-64
2021/12/30 05:55:13;;;;;;;3.38;1.70;;;14.00;99.90;;;;;;5053462;28;20194;-64
2021/12/30 05:57:39;;;;;;;3.13;1.63;;;13.90;99.90;;;;;;5053541;28;20182;-65
2021/12/30 06:00:08;;;;;;;4.72;1.67;;;13.90;99.90;;;;;;5053269;28;20195;-64
2021/12/30 06:02:33;;;;;;;3.40;1.50;;;13.90;99.90;;;;;;5052998;28;20199;-64
2021/12/30 06:04:59;;;;;;;2.88;1.50;;;13.90;99.90;;;;;;5055622;28;20661;-66
2021/12/30 06:07:25;;;;;;;2.63;1.60;;;13.90;99.90;;;;;;5057364;28;20617;-64
2021/12/30 06:09:51;;;;;;;2.65;1.60;;;13.90;99.90;;;;;;5057330;28;20179;-66
2021/12/30 06:12:16;;;;;;;4.70;1.40;;;13.90;99.90;;;;;;5057516;28;20201;-65
2021/12/30 06:14:42;;;;;;;2.13;1.70;;;13.90;99.90;;;;;;5056237;28;20261;-64
2021/12/30 06:17:10;;;;;;;1.77;1.65;;;14.00;99.90;;;;;;5057439;28;20290;-66
2021/12/30 06:19:36;;;;;;;2.53;1.52;;;13.90;99.90;;;;;;5056966;28;20597;-66
2021/12/30 06:22:02;;;;;;;1.92;1.63;;;13.90;99.90;;;;;;5057336;28;20210;-64
2021/12/30 06:24:28;;;;;;;2.35;1.52;;;13.90;99.90;;;;;;5057099;28;20220;-65
2021/12/30 06:26:53;;;;;;;2.95;1.63;;;14.00;99.90;;;;;;5057043;28;20686;-66
2021/12/30 06:29:20;;;;;;;2.67;1.70;;;13.90;99.90;;;;;;5056802;28;20712;-63
2021/12/30 06:31:45;;;;;;;3.33;2.10;;;13.90;99.90;;;;;;5057100;28;20176;-65
2021/12/30 06:34:11;;;;;;;3.15;2.00;;;14.00;99.90;;;;;;5056948;28;20194;-65
2021/12/30 06:36:37;;;;;;;2.55;1.83;;;14.10;99.90;;;;;;5039022;28;20564;-66
2021/12/30 06:39:04;;;;;;;3.35;2.10;;;14.00;99.90;;;;;;5056688;28;20198;-65
2021/12/30 06:41:29;;;;;;;4.10;2.60;;;14.00;99.90;;;;;;5055447;28;20655;-65
2021/12/30 06:43:55;;;;;;;2.88;2.25;;;14.00;99.90;;;;;;5056321;28;20175;-66
2021/12/30 06:46:23;;;;;;;3.63;2.20;;;14.00;99.90;;;;;;5056730;28;20182;-66
2021/12/30 06:48:49;;;;;;;4.03;1.90;;;14.00;99.90;;;;;;5056539;28;20202;-66
2021/12/30 06:51:19;;;;;;;3.72;1.75;;;14.10;99.90;;;;;;5056478;28;20548;-65
2021/12/30 06:53:45;;;;;;;3.25;1.90;;;14.00;99.90;;;;;;5056658;28;20163;-65
2021/12/30 06:56:12;;;;;;;1.70;1.60;;;14.00;99.90;;;;;;5054931;28;20648;-64
2021/12/30 06:58:37;;;;;;;2.53;1.88;;;14.00;99.90;;;;;;5056349;28;20282;-64
2021/12/30 07:01:04;;;;;;;1.50;1.40;;;14.10;99.90;;;;;;5056136;28;20764;-63
2021/12/30 07:03:29;;;;;;;4.45;1.80;;;14.10;99.90;;;;;;5056207;28;20183;-65
2021/12/30 07:05:55;;;;;;;2.30;1.48;;;14.10;99.90;;;;;;5055927;28;20182;-65
2021/12/30 07:08:22;;;;;;;2.22;1.60;;;14.10;99.90;;;;;;5056376;28;20207;-66
2021/12/30 07:10:49;;;;;;;2.80;1.60;;;14.00;99.90;;;;;;5056061;28;20229;-65
2021/12/30 07:13:14;;;;;;;3.50;1.70;;;14.10;99.90;;;;;;5053185;28;21148;-65
2021/12/30 07:15:40;;;;;;;2.92;1.70;;;14.00;99.90;;;;;;5054978;28;20238;-65
2021/12/30 07:18:06;;;;;;;3.40;1.80;;;14.00;99.90;;;;;;5055705;28;20187;-65
2021/12/30 07:20:32;;;;;;;3.00;1.65;;;14.00;99.90;;;;;;5054365;28;20210;-65
2021/12/30 07:22:57;;;;;;;2.85;1.60;;;14.00;99.90;;;;;;5054197;28;20317;-65
2021/12/30 07:25:23;;;;;;;3.13;1.80;;;14.00;99.90;;;;;;5055707;28;20179;-65
2021/12/30 07:27:52;;;;;;;4.53;1.70;;;14.00;99.90;;;;;;5054389;28;20180;-66
2021/12/30 07:30:19;;;;;;;4.28;1.98;;;14.00;99.90;;;;;;5055764;28;20186;-66
2021/12/30 07:32:46;;;;;;;2.63;1.80;;;14.10;99.90;;;;;;5055788;28;20527;-65
2021/12/30 07:35:13;;;;;;;4.97;1.98;;;14.10;99.90;;;;;;5055666;28;20190;-66
2021/12/30 07:37:39;;;;;;;3.67;2.10;;;14.10;99.90;;;;;;5055372;28;20502;-66
2021/12/30 07:40:05;;;;;;;2.95;2.08;;;14.10;99.90;;;;;;5055570;28;20202;-65
2021/12/30 07:42:31;;;;;;;5.72;2.20;;;14.20;99.90;;;;;;5055205;28;20191;-65
2021/12/30 07:44:57;;;;;;;4.57;2.38;;;14.20;99.90;;;;;;5055093;28;20187;-65
2021/12/30 07:47:22;;;;;;;6.30;2.95;;;14.20;99.90;;;;;;5055250;28;20257;-66
2021/12/30 07:49:48;;;;;;;5.63;2.58;;;14.10;99.90;;;;;;5055319;28;20274;-66
2021/12/30 07:52:14;;;;;;;4.32;2.60;;;14.20;99.90;;;;;;5055644;28;20181;-65
2021/12/30 07:54:43;;;;;;;5.63;2.90;;;14.10;99.90;;;;;;5055020;28;20262;-64
2021/12/30 07:57:13;;;;;;;8.82;3.03;;;14.10;99.90;;;;;;5055188;28;20263;-65
2021/12/30 07:59:38;;;;;;;6.63;3.10;;;14.20;99.90;;;;;;5054109;28;20205;-64
2021/12/30 08:02:04;;;;;;;8.50;3.20;;;14.20;99.90;;;;;;5054702;28;20262;-64
2021/12/30 08:04:30;;;;;;;6.05;3.30;;;14.20;99.90;;;;;;5055178;28;20666;-64
2021/12/30 08:06:56;;;;;;;7.40;3.53;;;14.20;99.90;;;;;;5054845;28;20179;-65
2021/12/30 08:09:22;;;;;;;8.18;3.60;;;14.20;99.90;;;;;;5055071;28;20184;-66
2021/12/30 08:11:47;;;;;;;11.73;3.35;;;14.20;99.90;;;;;;5055030;28;20279;-65
2021/12/30 08:14:13;;;;;;;10.38;3.33;;;14.20;99.90;;;;;;5055021;28;20175;-65
2021/12/30 08:16:39;;;;;;;8.93;3.20;;;14.20;99.90;;;;;;5055086;28;20185;-66
2021/12/30 08:19:04;;;;;;;11.48;3.70;;;14.30;99.90;;;;;;5054839;28;20171;-65
2021/12/30 08:21:30;;;;;;;12.45;3.20;;;14.20;99.90;;;;;;5054841;28;20273;-65
2021/12/30 08:23:56;;;;;;;9.13;3.35;;;14.10;99.90;;;;;;5054813;28;20532;-65
2021/12/30 08:26:22;;;;;;;12.18;4.10;;;14.10;99.90;;;;;;5054284;28;20175;-65
2021/12/30 08:28:48;;;;;;;13.18;3.72;;;14.20;99.90;;;;;;5054597;28;20198;-65
2021/12/30 08:31:14;;;;;;;13.18;3.30;;;14.20;99.90;;;;;;5054962;28;20179;-65
2021/12/30 08:33:40;;;;;;;8.80;3.38;;;14.30;99.90;;;;;;5054561;28;20175;-65
2021/12/30 08:36:06;;;;;;;10.48;3.60;;;14.30;99.90;;;;;;5054304;28;20225;-65
2021/12/30 08:38:32;;;;;;;10.98;3.60;;;14.30;99.90;;;;;;5054771;28;20186;-65
2021/12/30 08:40:58;;;;;;;12.40;3.72;;;14.30;99.90;;;;;;5054440;28;20191;-65
2021/12/30 08:43:25;;;;;;;11.95;3.72;;;14.20;99.90;;;;;;5053103;28;20636;-65
2021/12/30 08:45:51;;;;;;;11.60;4.00;;;14.10;99.90;;;;;;5054490;28;20266;-65
2021/12/30 08:48:19;;;;;;;10.85;3.50;;;14.10;99.90;;;;;;5053924;28;20639;-65
2021/12/30 08:50:45;;;;;;;13.50;3.97;;;14.20;99.90;;;;;;5054114;28;20666;-65
2021/12/30 08:53:12;;;;;;;8.77;3.47;;;14.10;99.90;;;;;;5053174;28;20167;-65
2021/12/30 08:55:38;;;;;;;11.55;3.58;;;14.20;99.90;;;;;;5054249;28;20229;-65
2021/12/30 08:58:03;;;;;;;10.52;3.75;;;14.20;99.90;;;;;;5054087;28;20171;-65
2021/12/30 09:00:32;;;;;;;13.30;4.00;;;14.20;99.90;;;;;;5054391;28;20282;-65
2021/12/30 09:03:00;;;;;;;12.15;3.78;;;14.30;99.90;;;;;;5054079;28;20171;-65
2021/12/30 09:05:27;;;;;;;12.15;3.70;;;14.20;99.90;;;;;;5054022;28;20167;-65
2021/12/30 09:07:53;;;;;;;15.45;3.80;;;14.30;99.90;;;;;;5054037;28;20179;-65
2021/12/30 09:10:20;;;;;;;13.57;3.92;;;14.30;99.90;;;;;;5054017;28;20633;-65
2021/12/30 09:12:47;;;;;;;11.43;3.90;;;14.30;99.90;;;;;;5053931;28;20647;-65
2021/12/30 09:15:16;;;;;;;14.32;4.22;;;14.30;99.90;;;;;;5053394;28;20202;-65
2021/12/30 09:17:44;;;;;;;13.27;4.05;;;14.40;99.90;;;;;;5053888;28;20193;-65
2021/12/30 09:20:10;;;;;;;7.05;3.38;;;14.30;99.90;;;;;;5053708;28;20218;-65
2021/12/30 09:22:37;;;;;;;14.63;4.15;;;14.30;99.90;;;;;;5053699;28;20322;-65
2021/12/30 09:25:06;;;;;;;14.45;3.72;;;14.40;99.90;;;;;;5053720;28;20171;-65
2021/12/30 09:27:40;;;;;;;14.50;3.92;;;14.40;99.90;;;;;;5053591;28;20167;-65
2021/12/30 09:30:09;;;;;;;11.38;3.95;;;14.40;99.90;;;;;;5053551;28;20548;-64
2021/12/30 09:32:34;;;;;;;11.20;3.95;;;14.40;99.90;;;;;;5053498;28;20266;-65
2021/12/30 09:35:02;;;;;;;13.77;3.72;;;14.50;99.90;;;;;;5053952;28;20203;-66
2021/12/30 09:37:27;;;;;;;14.27;4.15;;;14.50;99.90;;;;;;5053535;28;20179;-64
2021/12/30 09:39:54;;;;;;;9.75;3.70;;;14.50;99.90;;;;;;5052567;28;20238;-63
2021/12/30 09:42:20;;;;;;;10.27;3.63;;;14.60;99.90;;;;;;5053076;28;20176;-65
2021/12/30 09:44:49;;;;;;;12.93;3.47;;;14.50;99.90;;;;;;5053461;28;20596;-65
2021/12/30 09:47:15;;;;;;;10.70;4.07;;;14.50;99.90;;;;;;5053440;28;20633;-65
2021/12/30 09:49:40;;;;;;;11.38;3.67;;;14.60;99.90;;;;;;5053371;28;20177;-64
2021/12/30 09:52:06;;;;;;;10.82;3.63;;;14.50;99.90;;;;;;5053473;28;20502;-65
2021/12/30 09:54:32;;;;;;;11.07;3.60;;;14.60;99.90;;;;;;5052923;28;20518;-64
2021/12/30 09:56:58;;;;;;;9.18;3.55;;;14.70;99.90;;;;;;5053294;28;20171;-65
2021/12/30 09:59:25;;;;;;;8.27;2.83;;;14.60;99.90;;;;;;5053182;28;20294;-64
2021/12/30 10:01:51;;;;;;;7.43;3.30;;;14.60;99.90;;;;;;5052955;28;20628;-63
2021/12/30 10:04:17;;;;;;;10.07;3.42;;;14.60;99.90;;;;;;5053231;28;20645;-65
2021/12/30 10:06:49;;;;;;;9.98;3.45;;;14.60;99.90;;;;;;5052931;28;20210;-64
2021/12/30 10:09:16;;;;;;;10.60;3.35;;;14.70;99.90;;;;;;5053192;28;20168;-65
2021/12/30 10:11:49;;;;;;;10.63;3.15;;;14.60;99.90;;;;;;5052857;28;20657;-64
2021/12/30 10:14:33;;;;;;;8.95;2.80;;;14.70;99.90;;;;;;5053156;28;20159;-65
2021/12/30 10:17:17;;;;;;;9.73;2.97;;;14.70;99.90;;;;;;5053479;28;20190;-65
2021/12/30 10:19:43;;;;;;;11.70;3.45;;;14.70;99.90;;;;;;5052833;28;20202;-65
2021/12/30 10:22:14;;;;;;;7.13;2.47;;;14.70;99.90;;;;;;5053088;28;20207;-65
2021/12/30 10:24:40;;;;;;;8.18;2.72;;;14.60;99.90;;;;;;5053397;28;20163;-64
2021/12/30 10:27:07;;;;;;;9.55;3.05;;;14.80;99.90;;;;;;5053026;28;20172;-65
2021/12/30 10:29:44;;;;;;;9.07;2.80;;;14.80;99.90;;;;;;5052957;28;20279;-65
2021/12/30 10:32:28;;;;;;;9.23;2.88;;;14.80;99.90;;;;;;5052933;28;20167;-65
2021/12/30 10:35:14;;;;;;;6.70;2.67;;;14.80;99.90;;;;;;5052993;28;20670;-64
2021/12/30 10:37:44;;;;;;;8.32;2.70;;;14.70;99.90;;;;;;5052913;28;20195;-64
2021/12/30 10:40:29;;;;;;;10.32;2.97;;;14.80;99.90;;;;;;5052890;28;20712;-65
2021/12/30 10:43:17;;;;;;;7.78;3.13;;;14.90;99.90;;;;;;5052600;28;20679;-65
2021/12/30 10:45:43;;;;;;;6.68;2.38;;;14.80;99.90;;;;;;5052924;28;20206;-64
2021/12/30 10:48:10;;;;;;;9.18;2.38;;;15.00;99.90;;;;;;5052803;28;20664;-64
2021/12/30 10:50:36;;;;;;;13.52;2.92;;;15.00;99.90;;;;;;5054594;28;20274;-65
2021/12/30 10:53:02;;;;;;;8.15;2.42;;;15.00;99.90;;;;;;5056581;28;20254;-65
2021/12/30 10:55:34;;;;;;;8.57;2.60;;;15.10;99.90;;;;;;5056408;28;20190;-64
2021/12/30 10:57:59;;;;;;;7.70;2.45;;;15.10;99.90;;;;;;5056539;28;20194;-64
2021/12/30 11:00:32;;;;;;;8.63;2.55;;;15.30;99.90;;;;;;5056248;28;20273;-65
2021/12/30 11:03:20;;;;;;;5.93;2.28;;;15.20;99.90;;;;;;5056304;28;20510;-65
2021/12/30 11:06:17;;;;;;;9.30;2.80;;;15.30;99.90;;;;;;5056322;28;20625;-65
2021/12/30 11:08:43;;;;;;;7.45;2.42;;;15.40;99.90;;;;;;5056249;28;20225;-65
2021/12/30 11:11:26;;;;;;;8.55;2.72;;;15.60;99.90;;;;;;5056215;28;20187;-65
2021/12/30 11:14:02;;;;;;;5.28;1.95;;;15.70;99.90;;;;;;5056282;28;20186;-64
2021/12/30 11:16:27;;;;;;;7.50;2.55;;;15.80;99.90;;;;;;5056180;28;20190;-64
2021/12/30 11:18:56;;;;;;;4.47;2.20;;;15.70;99.90;;;;;;5055784;28;20175;-64
2021/12/30 11:21:41;;;;;;;5.93;2.35;;;15.60;99.90;;;;;;5055987;28;20180;-65
2021/12/30 11:24:08;;;;;;;8.35;2.45;;;15.60;99.90;;;;;;5055985;28;20256;-65
2021/12/30 11:26:34;;;;;;;6.13;2.50;;;15.60;99.90;;;;;;5055867;28;20183;-65
2021/12/30 11:29:01;;;;;;;5.18;2.00;;;15.50;99.90;;;;;;5055847;28;20183;-65
2021/12/30 11:31:29;;;;;;;4.88;2.53;;;15.40;99.90;;;;;;5055867;28;20225;-65
2021/12/30 11:33:55;;;;;;;7.10;2.05;;;15.30;99.90;;;;;;5055654;28;20221;-65
2021/12/30 11:36:21;;;;;;;6.72;2.45;;;15.30;99.90;;;;;;5055493;28;20171;-65
2021/12/30 11:38:46;;;;;;;6.00;2.22;;;15.30;99.90;;;;;;5037919;28;20184;-66
2021/12/30 11:41:20;;;;;;;5.47;2.22;;;15.20;99.90;;;;;;5055561;28;20237;-65
2021/12/30 11:43:48;;;;;;;7.47;2.40;;;15.20;99.90;;;;;;5055729;28;20679;-64
2021/12/30 11:46:35;;;;;;;7.47;2.40;;;15.20;99.90;;;;;;5055293;28;20179;-65
2021/12/30 11:49:05;;;;;;;6.45;2.40;;;15.10;99.90;;;;;;5054329;28;20175;-65
2021/12/30 11:51:52;;;;;;;5.93;2.53;;;15.10;99.90;;;;;;5055452;28;20171;-65
2021/12/30 11:54:39;;;;;;;4.55;1.77;;;15.10;99.90;;;;;;5055377;28;20621;-64
2021/12/30 11:57:32;;;;;;;8.02;2.42;;;15.10;99.90;;;;;;5055312;28;20171;-64
2021/12/30 12:00:49;;;;;;;6.85;2.25;;;15.10;99.90;;;;;;5055315;28;20266;-64
2021/12/30 12:03:36;;;;;;;4.95;2.15;;;15.10;99.90;;;;;;5045370;28;20183;-65
2021/12/30 12:06:24;;;;;;;5.50;2.60;;;15.20;99.90;;;;;;5055295;28;20167;-65
2021/12/30 12:08:59;;;;;;;6.47;2.40;;;15.30;99.90;;;;;;5055035;28;20203;-66
2021/12/30 12:11:31;;;;;;;3.97;2.60;;;15.30;99.90;;;;;;5055147;28;20194;-65
2021/12/30 12:14:16;;;;;;;6.97;2.35;;;15.40;99.90;;;;;;5055146;28;20209;-65
2021/12/30 12:17:05;;;;;;;8.95;2.20;;;15.60;99.90;;;;;;5054990;28;20202;-65
2021/12/30 12:19:44;;;;;;;6.10;2.55;;;15.60;99.90;;;;;;5054727;28;20219;-64
2021/12/30 12:22:18;;;;;;;7.47;2.15;;;15.70;99.90;;;;;;5054857;28;20197;-68
2021/12/30 12:25:04;;;;;;;7.22;2.50;;;15.70;99.90;;;;;;5054907;28;20171;-67
2021/12/30 12:27:32;;;;;;;8.13;2.35;;;15.80;99.90;;;;;;5054527;28;20167;-68
2021/12/30 12:30:00;;;;;;;5.93;2.10;;;15.60;99.90;;;;;;5054496;28;20167;-65
2021/12/30 12:32:28;;;;;;;5.32;2.10;;;15.60;99.90;;;;;;5054681;28;20171;-65
2021/12/30 12:34:58;;;;;;;6.57;2.10;;;15.60;99.90;;;;;;5054687;28;20254;-65
2021/12/30 12:37:30;;;;;;;7.18;2.25;;;15.50;99.90;;;;;;5054525;28;20175;-65
2021/12/30 12:40:11;;;;;;;6.40;2.08;;;15.40;99.90;;;;;;5055014;28;20203;-65
2021/12/30 12:42:42;;;;;;;7.40;2.38;;;15.40;99.90;;;;;;5054465;28;20179;-66
2021/12/30 12:45:24;;;;;;;9.43;2.50;;;15.50;99.90;;;;;;5053678;28;20182;-64
2021/12/30 12:48:20;;;;;;;7.15;2.58;;;15.50;99.90;;;;;;5054004;28;20209;-65
2021/12/30 12:50:47;;;;;;;4.78;2.17;;;15.50;99.90;;;;;;5054245;28;20266;-67
2021/12/30 12:53:21;;;;;;;8.70;2.08;;;15.40;99.90;;;;;;5054236;28;20195;-65
2021/12/30 12:55:47;;;;;;;5.88;2.22;;;15.40;99.90;;;;;;5054220;28;20166;-65